Time;durP1;ratioP1;P1;durP2;ratioP2;P2;SDS_P1;SDS_P2;PMS_P1;PMS_P2;Temp;Humidity;BMP_temperature;BMP_pressure;BME280_temperature;BME280_humidity;BME280_pressure;Samples;Min_cycle;Max_cycle;Signal;HPM_P1;HPM_P2
2021/12/14 00:00:23;;;;;;;;;;;;;;;;;;5056810;28;19932;-66
2021/12/14 00:02:50;;;;;;;;;;;;;;;;;;5060531;28;19925;-67
2021/12/14 00:05:17;;;;;;;;;;;;;;;;;;5067553;28;19925;-67
2021/12/14 00:07:44;;;;;;;;;;;;;;;;;;5068734;28;19931;-67
2021/12/14 00:10:29;;;;;;;;;;;;;;;;;;5084179;28;19928;-67
2021/12/14 00:13:01;;;;;;;;;;;;;;;;;;5071382;28;20298;-67
2021/12/14 00:15:28;;;;;;;;;;;;;;;;;;5068549;28;19924;-67
2021/12/14 00:17:55;;;;;;;;;;;;;;;;;;5078610;28;20408;-67
2021/12/14 00:20:22;;;;;;;;;;;;;;;;;;5079489;28;19924;-66
2021/12/14 00:25:33;;;;;;;;;;;;;;;;;;5075044;28;19935;-66
2021/12/14 00:28:00;;;;;;;;;;;;;;;;;;5064440;28;19924;-66
2021/12/14 00:30:27;;;;;;;;;;;;;;;;;;5061734;28;19931;-67
2021/12/14 00:32:54;;;;;;;;;;;;;;;;;;5066518;28;19925;-66
2021/12/14 00:35:21;;;;;;;;;;;;;;;;;;5077038;28;19939;-66
2021/12/14 00:37:48;;;;;;;;;;;;;;;;;;5080412;28;19925;-66
2021/12/14 00:40:15;;;;;;;;;;;;;;;;;;5078387;28;20400;-66
2021/12/14 00:42:42;;;;;;;;;;;;;;;;;;5070240;28;19925;-66
2021/12/14 00:45:09;;;;;;;;;;;;;;;;;;5071089;28;20023;-67
2021/12/14 00:47:36;;;;;;;;;;;;;;;;;;5067627;28;19928;-66
2021/12/14 00:50:03;;;;;;;;;;;;;;;;;;5066750;28;19928;-66
2021/12/14 00:52:29;;;;;;;;;;;;;;;;;;5070729;28;19924;-66
2021/12/14 00:54:56;;;;;;;;;;;;;;;;;;5065649;28;19955;-66
2021/12/14 00:57:23;;;;;;;;;;;;;;;;;;5060586;28;19925;-67
2021/12/14 00:59:50;;;;;;;;;;;;;;;;;;5071042;28;19925;-66
2021/12/14 01:02:17;;;;;;;;;;;;;;;;;;5069384;28;19924;-67
2021/12/14 01:04:44;;;;;;;;;;;;;;;;;;5068176;28;19925;-66
2021/12/14 01:07:11;;;;;;;;;;;;;;;;;;5062260;28;19925;-66
2021/12/14 01:09:38;;;;;;;;;;;;;;;;;;5065044;28;20313;-66
2021/12/14 01:12:08;;;;;;;;;;;;;;;;;;5088461;22;19950;-65
2021/12/14 01:14:41;;;;;;;;;;;;;;;;;;5087755;28;20401;-65
2021/12/14 01:17:11;;;;;;;;;;;;;;;;;;5079130;28;19990;-65
2021/12/14 01:19:38;;;;;;;;;;;;;;;;;;5072048;28;20343;-65
2021/12/14 01:22:33;;;;;;;;;;;;;;;;;;5078359;28;20206;-65
2021/12/14 01:25:06;;;;;;;;;;;;;;;;;;5082940;28;20441;-63
2021/12/14 01:27:33;;;;;;;;;;;;;;;;;;5072112;28;19924;-64
2021/12/14 01:30:04;;;;;;;;;;;;;;;;;;5076255;28;19924;-65
2021/12/14 01:32:35;;;;;;;;;;;;;;;;;;5075246;28;19924;-64
2021/12/14 01:35:02;;;;;;;;;;;;;;;;;;5077204;28;20297;-64
2021/12/14 01:37:39;;;;;;;;;;;;;;;;;;5069880;28;20013;-65
2021/12/14 01:40:07;;;;;;;;;;;;;;;;;;5080591;28;19924;-65
2021/12/14 01:42:34;;;;;;;;;;;;;;;;;;5078014;28;19924;-65
2021/12/14 01:45:00;;;;;;;;;;;;;;;;;;5077007;28;20294;-65
2021/12/14 01:47:27;;;;;;;;;;;;;;;;;;5084188;28;20401;-65
2021/12/14 01:49:54;;;;;;;;;;;;;;;;;;5077424;28;19935;-65
2021/12/14 01:52:21;;;;;;;;;;;;;;;;;;5070606;28;19924;-65
2021/12/14 01:54:48;;;;;;;;;;;;;;;;;;5067539;28;19924;-65
2021/12/14 01:57:15;;;;;;;;;;;;;;;;;;5067451;28;19939;-65
2021/12/14 01:59:42;;;;;;;;;;;;;;;;;;5087293;28;20317;-66
2021/12/14 02:02:20;;;;;;;;;;;;;;;;;;5071723;28;19931;-68
2021/12/14 02:04:47;;;;;;;;;;;;;;;;;;5074132;28;19954;-66
2021/12/14 02:07:13;;;;;;;;;;;;;;;;;;5075020;28;19924;-66
2021/12/14 02:09:40;;;;;;;;;;;;;;;;;;5078263;28;19924;-65
2021/12/14 02:12:07;;;;;;;;;;;;;;;;;;5080739;28;19932;-65
2021/12/14 02:14:34;;;;;;;;;;;;;;;;;;5079933;28;19935;-65
2021/12/14 02:17:01;;;;;;;;;;;;;;;;;;5077848;28;19924;-65
2021/12/14 02:19:28;;;;;;;;;;;;;;;;;;5072848;28;19925;-66
2021/12/14 02:21:55;;;;;;;;;;;;;;;;;;5070072;28;19928;-65
2021/12/14 02:24:22;;;;;;;;;;;;;;;;;;5084872;28;19932;-65
2021/12/14 02:26:49;;;;;;;;;;;;;;;;;;5079711;28;19924;-66
2021/12/14 02:29:16;;;;;;;;;;;;;;;;;;5071530;28;19932;-66
2021/12/14 02:31:43;;;;;;;;;;;;;;;;;;5087950;28;19924;-66
2021/12/14 02:34:10;;;;;;;;;;;;;;;;;;5072413;28;19932;-66
2021/12/14 02:36:36;;;;;;;;;;;;;;;;;;5072566;28;20312;-65
2021/12/14 02:39:07;;;;;;;;;;;;;;;;;;5074172;28;19924;-65
2021/12/14 02:41:34;;;;;;;;;;;;;;;;;;5075780;28;20001;-65
2021/12/14 02:44:01;;;;;;;;;;;;;;;;;;5073052;28;19996;-65
2021/12/14 02:46:28;;;;;;;;;;;;;;;;;;5076358;28;20455;-65
2021/12/14 02:48:55;;;;;;;;;;;;;;;;;;5075644;28;19928;-66
2021/12/14 02:51:22;;;;;;;;;;;;;;;;;;5081208;28;20297;-66
2021/12/14 02:53:49;;;;;;;;;;;;;;;;;;5078631;28;19924;-66
2021/12/14 02:56:16;;;;;;;;;;;;;;;;;;5077226;28;20280;-65
2021/12/14 02:58:42;;;;;;;;;;;;;;;;;;5075764;28;19924;-65
2021/12/14 03:01:09;;;;;;;;;;;;;;;;;;5091071;28;19924;-65
2021/12/14 03:03:36;;;;;;;;;;;;;;;;;;5086841;28;20505;-65
2021/12/14 03:06:05;;;;;;;;;;;;;;;;;;5079439;28;19935;-65
2021/12/14 03:08:37;;;;;;;;;;;;;;;;;;5088154;28;19931;-66
2021/12/14 03:11:10;;;;;;;;;;;;;;;;;;5077334;28;20372;-65
2021/12/14 03:13:37;;;;;;;;;;;;;;;;;;5087303;28;19925;-66
2021/12/14 03:16:04;;;;;;;;;;;;;;;;;;5089561;28;19924;-67
2021/12/14 03:18:31;;;;;;;;;;;;;;;;;;5082449;28;19924;-65
2021/12/14 03:20:58;;;;;;;;;;;;;;;;;;5089146;28;19924;-65
2021/12/14 03:23:26;;;;;;;;;;;;;;;;;;5078609;28;19928;-65
2021/12/14 03:25:53;;;;;;;;;;;;;;;;;;5085832;28;19924;-66
2021/12/14 03:28:20;;;;;;;;;;;;;;;;;;5082213;28;19931;-66
2021/12/14 03:30:47;;;;;;;;;;;;;;;;;;5078133;28;19931;-65
2021/12/14 03:33:17;;;;;;;;;;;;;;;;;;5070750;28;20011;-65
2021/12/14 03:35:44;;;;;;;;;;;;;;;;;;5083455;28;20003;-65
2021/12/14 03:38:11;;;;;;;;;;;;;;;;;;5072199;28;19931;-65
2021/12/14 03:40:38;;;;;;;;;;;;;;;;;;5074915;28;19951;-65
2021/12/14 03:43:05;;;;;;;;;;;;;;;;;;5075174;28;19935;-65
2021/12/14 03:45:32;;;;;;;;;;;;;;;;;;5085558;28;19947;-65
2021/12/14 03:47:59;;;;;;;;;;;;;;;;;;5079020;28;19932;-65
2021/12/14 03:50:25;;;;;;;;;;;;;;;;;;5077942;28;19929;-64
2021/12/14 03:52:52;;;;;;;;;;;;;;;;;;5077067;28;19947;-64
2021/12/14 03:55:19;;;;;;;;;;;;;;;;;;5085135;28;19932;-64
2021/12/14 03:57:46;;;;;;;;;;;;;;;;;;5085974;28;19924;-64
2021/12/14 04:00:13;;;;;;;;;;;;;;;;;;5072088;28;19924;-65
2021/12/14 04:02:40;;;;;;;;;;;;;;;;;;5075803;28;20342;-64
2021/12/14 04:05:11;;;;;;;;;;;;;;;;;;5072556;28;19932;-65
2021/12/14 04:07:37;;;;;;;;;;;;;;;;;;5088470;28;19924;-66
2021/12/14 04:10:04;;;;;;;;;;;;;;;;;;5076049;28;19931;-67
2021/12/14 04:12:31;;;;;;;;;;;;;;;;;;5081118;28;19924;-66
2021/12/14 04:14:58;;;;;;;;;;;;;;;;;;5080138;28;20297;-65
2021/12/14 04:17:25;;;;;;;;;;;;;;;;;;5072571;28;19929;-65
2021/12/14 04:19:52;;;;;;;;;;;;;;;;;;5068462;28;19928;-65
2021/12/14 04:22:19;;;;;;;;;;;;;;;;;;5074940;28;19950;-65
2021/12/14 04:24:46;;;;;;;;;;;;;;;;;;5076389;28;19931;-65
2021/12/14 04:27:13;;;;;;;;;;;;;;;;;;5073248;28;19924;-65
2021/12/14 04:29:40;;;;;;;;;;;;;;;;;;5077535;28;19925;-65
2021/12/14 04:32:07;;;;;;;;;;;;;;;;;;5078593;28;19924;-65
2021/12/14 04:34:34;;;;;;;;;;;;;;;;;;5073993;28;19924;-65
2021/12/14 04:37:02;;;;;;;;;;;;;;;;;;5074194;28;19931;-65
2021/12/14 04:39:39;;;;;;;;;;;;;;;;;;5066757;28;19924;-66
2021/12/14 04:53:05;;;;;;;;;;;;;;;;;;5072864;28;20117;-65
2021/12/14 04:55:32;;;;;;;;;;;;;;;;;;5076641;28;19925;-64
2021/12/14 04:57:59;;;;;;;;;;;;;;;;;;5073325;28;20135;-64
2021/12/14 05:00:26;;;;;;;;;;;;;;;;;;5088006;28;20573;-65
2021/12/14 05:02:53;;;;;;;;;;;;;;;;;;5079728;28;19943;-65
2021/12/14 05:05:20;;;;;;;;;;;;;;;;;;5080443;28;20408;-65
2021/12/14 05:09:19;;;;;;;;;;;;;;;;;;5074346;28;19936;-65
2021/12/14 05:10:33;;;;;;;;;;;;;;;;;;5024373;28;1789212;-65
2021/12/14 05:13:00;;;;;;;;;;;;;;;;;;5080711;28;20005;-65
2021/12/14 05:15:27;;;;;;;;;;;;;;;;;;5082616;28;19924;-63
2021/12/14 05:17:54;;;;;;;;;;;;;;;;;;5078198;28;19924;-63
2021/12/14 05:20:21;;;;;;;;;;;;;;;;;;5081212;28;20286;-64
2021/12/14 05:22:48;;;;;;;;;;;;;;;;;;5085295;28;20295;-64
2021/12/14 05:25:15;;;;;;;;;;;;;;;;;;5077295;28;19944;-64
2021/12/14 05:27:45;;;;;;;;;;;;;;;;;;5075816;28;19933;-64
2021/12/14 05:30:12;;;;;;;;;;;;;;;;;;5075500;28;19928;-64
2021/12/14 05:32:42;;;;;;;;;;;;;;;;;;5071638;28;20370;-65
2021/12/14 05:35:09;;;;;;;;;;;;;;;;;;5074347;28;19925;-65
2021/12/14 05:37:44;;;;;;;;;;;;;;;;;;5074188;28;19936;-65
2021/12/14 05:40:19;;;;;;;;;;;;;;;;;;5068911;28;19998;-65
2021/12/14 05:45:33;;;;;;;;;;;;;;;;;;5077932;28;19965;-65
2021/12/14 05:48:00;;;;;;;;;;;;;;;;;;5068452;28;20405;-65
2021/12/14 05:50:27;;;;;;;;;;;;;;;;;;5077270;28;19924;-65
2021/12/14 05:52:54;;;;;;;;;;;;;;;;;;5075846;28;20459;-66
2021/12/14 05:55:23;;;;;;;;;;;;;;;;;;5083075;28;19982;-64
2021/12/14 05:57:50;;;;;;;;;;;;;;;;;;5071231;28;19930;-64
2021/12/14 06:00:17;;;;;;;;;;;;;;;;;;5078875;28;19939;-65
2021/12/14 06:02:44;;;;;;;;;;;;;;;;;;5069911;28;20308;-63
2021/12/14 06:05:11;;;;;;;;;;;;;;;;;;5082682;28;19928;-65
2021/12/14 06:07:38;;;;;;;;;;;;;;;;;;5083660;28;19924;-65
2021/12/14 06:10:05;;;;;;;;;;;;;;;;;;5073332;28;19932;-65
2021/12/14 06:12:31;;;;;;;;;;;;;;;;;;5075589;28;19972;-65
2021/12/14 06:14:59;;;;;;;;;;;;;;;;;;5073930;28;19924;-66
2021/12/14 06:17:29;;;;;;;;;;;;;;;;;;5079520;28;20396;-65
2021/12/14 06:19:56;;;;;;;;;;;;;;;;;;5084847;28;19928;-65
2021/12/14 06:22:23;;;;;;;;;;;;;;;;;;5081660;28;19931;-65
2021/12/14 06:24:50;;;;;;;;;;;;;;;;;;5070067;28;19924;-65
2021/12/14 06:27:16;;;;;;;;;;;;;;;;;;5071317;28;19947;-65
2021/12/14 06:29:43;;;;;;;;;;;;;;;;;;5076424;28;20302;-65
2021/12/14 06:32:10;;;;;;;;;;;;;;;;;;5066348;28;19928;-67
2021/12/14 06:34:37;;;;;;;;;;;;;;;;;;5070021;28;19924;-64
2021/12/14 06:37:06;;;;;;;;;;;;;;;;;;5065637;28;19932;-64
2021/12/14 06:39:33;;;;;;;;;;;;;;;;;;5061573;28;19933;-64
2021/12/14 06:42:00;;;;;;;;;;;;;;;;;;5071523;28;21218;-64
2021/12/14 06:44:27;;;;;;;;;;;;;;;;;;5062694;28;19934;-64
2021/12/14 06:46:54;;;;;;;;;;;;;;;;;;5069890;28;19928;-66
2021/12/14 06:49:21;;;;;;;;;;;;;;;;;;5069022;28;19931;-65
2021/12/14 06:51:48;;;;;;;;;;;;;;;;;;5066616;28;19981;-65
2021/12/14 06:54:15;;;;;;;;;;;;;;;;;;5059209;28;19929;-65
2021/12/14 06:56:42;;;;;;;;;;;;;;;;;;5052459;28;19943;-65
2021/12/14 06:59:09;;;;;;;;;;;;;;;;;;5054775;28;20292;-65
2021/12/14 07:01:36;;;;;;;;;;;;;;;;;;5057616;28;19939;-63
2021/12/14 07:04:03;;;;;;;;;;;;;;;;;;5054363;28;19943;-64
2021/12/14 07:06:30;;;;;;;;;;;;;;;;;;5056755;28;19934;-64
2021/12/14 07:08:57;;;;;;;;;;;;;;;;;;5052844;28;19942;-64
2021/12/14 07:11:24;;;;;;;;;;;;;;;;;;5056366;28;19932;-65
2021/12/14 07:13:51;;;;;;;;;;;;;;;;;;5056945;28;19931;-65
2021/12/14 07:16:19;;;;;;;;;;;;;;;;;;5055389;28;20355;-65
2021/12/14 07:18:46;;;;;;;;;;;;;;;;;;5054212;28;19933;-65
2021/12/14 07:21:13;;;;;;;;;;;;;;;;;;5060205;28;20004;-65
2021/12/14 07:23:40;;;;;;;;;;;;;;;;;;5053805;28;19932;-66
2021/12/14 07:26:07;;;;;;;;;;;;;;;;;;5059284;28;20344;-66
2021/12/14 07:28:36;;;;;;;;;;;;;;;;;;5055313;28;19932;-66
2021/12/14 07:31:03;;;;;;;;;;;;;;;;;;5051998;28;22014;-67
2021/12/14 07:33:31;;;;;;;;;;;;;;;;;;5055320;28;19932;-67
2021/12/14 07:35:58;;;;;;;;;;;;;;;;;;5070188;28;19924;-66
2021/12/14 07:38:25;;;;;;;;;;;;;;;;;;5072286;28;19951;-66
2021/12/14 07:40:52;;;;;;;;;;;;;;;;;;5079994;28;19924;-66
2021/12/14 07:43:19;;;;;;;;;;;;;;;;;;5079397;28;20374;-65
2021/12/14 07:45:46;;;;;;;;;;;;;;;;;;5084825;28;19928;-66
2021/12/14 07:48:13;;;;;;;;;;;;;;;;;;5086815;28;19924;-65
2021/12/14 07:50:40;;;;;;;;;;;;;;;;;;5077414;28;19932;-66
2021/12/14 07:53:07;;;;;;;;;;;;;;;;;;5075490;28;19932;-66
2021/12/14 07:55:34;;;;;;;;;;;;;;;;;;5078897;28;19932;-65
2021/12/14 07:58:02;;;;;;;;;;;;;;;;;;5076837;28;20424;-66
2021/12/14 08:00:31;;;;;;;;;;;;;;;;;;5082752;28;19924;-65
2021/12/14 08:02:58;;;;;;;;;;;;;;;;;;5076584;28;19950;-65
2021/12/14 08:05:25;;;;;;;;;;;;;;;;;;5077474;28;20389;-66
2021/12/14 08:07:52;;;;;;;;;;;;;;;;;;5074312;28;19929;-66
2021/12/14 08:10:19;;;;;;;;;;;;;;;;;;5081294;28;20300;-66
2021/12/14 08:12:46;;;;;;;;;;;;;;;;;;5083554;28;19931;-66
2021/12/14 08:15:13;;;;;;;;;;;;;;;;;;5076614;28;20402;-66
2021/12/14 08:17:40;;;;;;;;;;;;;;;;;;5076997;28;19928;-66
2021/12/14 08:20:07;;;;;;;;;;;;;;;;;;5080460;28;20027;-66
2021/12/14 08:22:34;;;;;;;;;;;;;;;;;;5080819;28;19928;-66
2021/12/14 08:25:01;;;;;;;;;;;;;;;;;;5080351;28;19924;-66
2021/12/14 08:27:28;;;;;;;;;;;;;;;;;;5080981;28;19924;-66
2021/12/14 08:29:55;;;;;;;;;;;;;;;;;;5078848;28;19928;-66
2021/12/14 08:32:23;;;;;;;;;;;;;;;;;;5075858;28;20385;-66
2021/12/14 08:34:50;;;;;;;;;;;;;;;;;;5084328;28;19924;-66
2021/12/14 08:37:17;;;;;;;;;;;;;;;;;;5079371;28;20345;-65
2021/12/14 08:39:44;;;;;;;;;;;;;;;;;;5084819;28;19924;-66
2021/12/14 08:42:13;;;;;;;;;;;;;;;;;;5083604;28;20312;-66
2021/12/14 08:44:41;;;;;;;;;;;;;;;;;;5081125;28;20024;-66
2021/12/14 08:47:07;;;;;;;;;;;;;;;;;;5082676;28;20347;-66
2021/12/14 08:49:34;;;;;;;;;;;;;;;;;;5078435;28;19929;-67
2021/12/14 08:52:01;;;;;;;;;;;;;;;;;;5081061;28;19928;-66
2021/12/14 08:54:29;;;;;;;;;;;;;;;;;;5080965;28;19935;-66
2021/12/14 08:56:56;;;;;;;;;;;;;;;;;;5081213;28;20390;-66
2021/12/14 08:59:23;;;;;;;;;;;;;;;;;;5081994;28;20304;-66
2021/12/14 09:01:50;;;;;;;;;;;;;;;;;;5073261;28;19932;-66
2021/12/14 09:04:17;;;;;;;;;;;;;;;;;;5075446;28;20127;-66
2021/12/14 09:06:44;;;;;;;;;;;;;;;;;;5083001;28;19924;-69
2021/12/14 09:09:11;;;;;;;;;;;;;;;;;;5079015;28;19931;-65
2021/12/14 09:11:38;;;;;;;;;;;;;;;;;;5078564;28;20037;-65
2021/12/14 09:14:05;;;;;;;;;;;;;;;;;;5084516;28;19932;-67
2021/12/14 09:16:32;;;;;;;;;;;;;;;;;;5079909;28;20433;-66
2021/12/14 09:18:59;;;;;;;;;;;;;;;;;;5084319;28;20019;-66
2021/12/14 09:21:26;;;;;;;;;;;;;;;;;;5083210;28;19924;-66
2021/12/14 09:23:53;;;;;;;;;;;;;;;;;;5084788;28;19944;-66
2021/12/14 09:26:20;;;;;;;;;;;;;;;;;;5079794;28;19928;-67
2021/12/14 09:28:47;;;;;;;;;;;;;;;;;;5083465;28;19990;-65
2021/12/14 09:31:14;;;;;;;;;;;;;;;;;;5081137;28;20029;-65
2021/12/14 09:33:42;;;;;;;;;;;;;;;;;;5083221;28;19935;-66
2021/12/14 09:36:12;;;;;;;;;;;;;;;;;;5080905;28;19924;-66
2021/12/14 09:38:40;;;;;;;;;;;;;;;;;;5079687;28;19931;-66
2021/12/14 09:41:07;;;;;;;;;;;;;;;;;;5083807;28;19932;-67
2021/12/14 09:43:34;;;;;;;;;;;;;;;;;;5083654;28;19924;-67
2021/12/14 09:46:01;;;;;;;;;;;;;;;;;;5077523;28;20015;-67
2021/12/14 09:48:28;;;;;;;;;;;;;;;;;;5079323;28;19951;-67
2021/12/14 09:50:55;;;;;;;;;;;;;;;;;;5082587;28;19930;-66
2021/12/14 09:53:22;;;;;;;;;;;;;;;;;;5076896;28;19931;-66
2021/12/14 09:55:49;;;;;;;;;;;;;;;;;;5082344;28;20285;-66
2021/12/14 09:58:16;;;;;;;;;;;;;;;;;;5079691;28;19924;-66
2021/12/14 10:00:43;;;;;;;;;;;;;;;;;;5079968;28;19928;-66
2021/12/14 10:03:10;;;;;;;;;;;;;;;;;;5078203;28;19925;-67
2021/12/14 10:05:37;;;;;;;;;;;;;;;;;;5075545;28;19933;-66
2021/12/14 10:08:13;;;;;;;;;;;;;;;;;;5083616;28;20012;-66
2021/12/14 10:10:40;;;;;;;;;;;;;;;;;;5078200;28;20960;-66
2021/12/14 10:13:07;;;;;;;;;;;;;;;;;;5079580;28;19932;-66
2021/12/14 10:15:34;;;;;;;;;;;;;;;;;;5077547;28;19928;-66
2021/12/14 10:18:01;;;;;;;;;;;;;;;;;;5082143;28;19975;-67
2021/12/14 10:20:28;;;;;;;;;;;;;;;;;;5080507;28;20389;-67
2021/12/14 10:22:55;;;;;;;;;;;;;;;;;;5078740;28;20385;-67
2021/12/14 10:25:22;;;;;;;;;;;;;;;;;;5082078;28;20365;-67
2021/12/14 10:27:49;;;;;;;;;;;;;;;;;;5079239;28;19950;-67
2021/12/14 10:30:16;;;;;;;;;;;;;;;;;;5083212;28;20404;-67
2021/12/14 10:32:43;;;;;;;;;;;;;;;;;;5080735;28;20177;-67
2021/12/14 10:35:10;;;;;;;;;;;;;;;;;;5080305;28;19924;-65
2021/12/14 10:37:50;;;;;;;;;;;;;;;;;;5077795;28;19939;-66
2021/12/14 10:43:17;;;;;;;;;;;;;;;;;;5062356;28;20294;-67
2021/12/14 10:45:45;;;;;;;;;;;;;;;;;;5079926;28;20418;-66
2021/12/14 10:48:12;;;;;;;;;;;;;;;;;;5086858;28;19924;-66
2021/12/14 10:50:39;;;;;;;;;;;;;;;;;;5080940;28;19924;-66
2021/12/14 10:53:06;;;;;;;;;;;;;;;;;;5085740;28;19931;-67
2021/12/14 10:55:35;;;;;;;;;;;;;;;;;;5079772;28;19931;-66
2021/12/14 10:58:02;;;;;;;;;;;;;;;;;;5083881;28;19924;-66
2021/12/14 11:00:31;;;;;;;;;;;;;;;;;;5081545;28;20019;-66
2021/12/14 11:03:01;;;;;;;;;;;;;;;;;;5081676;28;19928;-67
2021/12/14 11:05:28;;;;;;;;;;;;;;;;;;5077754;28;20445;-66
2021/12/14 11:07:55;;;;;;;;;;;;;;;;;;5078173;28;20010;-67
2021/12/14 11:10:24;;;;;;;;;;;;;;;;;;5081038;28;19924;-68
2021/12/14 11:12:51;;;;;;;;;;;;;;;;;;5081902;28;19924;-65
2021/12/14 11:15:18;;;;;;;;;;;;;;;;;;5081170;28;19928;-68
2021/12/14 11:20:31;;;;;;;;;;;;;;;;;;5080163;28;20296;-64
2021/12/14 11:22:58;;;;;;;;;;;;;;;;;;5078914;28;19924;-65
2021/12/14 11:25:25;;;;;;;;;;;;;;;;;;5080558;28;19932;-66
2021/12/14 11:27:52;;;;;;;;;;;;;;;;;;5081521;28;19928;-66
2021/12/14 11:30:20;;;;;;;;;;;;;;;;;;5082930;28;20366;-66
2021/12/14 11:32:48;;;;;;;;;;;;;;;;;;5081653;28;20020;-66
2021/12/14 11:35:15;;;;;;;;;;;;;;;;;;5083172;28;20370;-66
2021/12/14 11:37:42;;;;;;;;;;;;;;;;;;5080295;28;20014;-67
2021/12/14 11:40:09;;;;;;;;;;;;;;;;;;5069644;28;19925;-66
2021/12/14 11:42:36;;;;;;;;;;;;;;;;;;5073347;28;19924;-68
2021/12/14 11:45:04;;;;;;;;;;;;;;;;;;5076540;28;19931;-66
2021/12/14 11:47:43;;;;;;;;;;;;;;;;;;5081344;28;19924;-68
2021/12/14 11:50:10;;;;;;;;;;;;;;;;;;5083306;28;19986;-66
2021/12/14 11:52:37;;;;;;;;;;;;;;;;;;5080279;28;20015;-67
2021/12/14 11:55:03;;;;;;;;;;;;;;;;;;5085173;28;19925;-66
2021/12/14 11:57:30;;;;;;;;;;;;;;;;;;5078431;28;19931;-67
2021/12/14 11:59:57;;;;;;;;;;;;;;;;;;5077150;28;19932;-67
2021/12/14 12:02:24;;;;;;;;;;;;;;;;;;5084795;28;19928;-68
2021/12/14 12:04:54;;;;;;;;;;;;;;;;;;5082357;28;20021;-66
2021/12/14 12:10:05;;;;;;;;;;;;;;;;;;5084837;28;20287;-67
2021/12/14 12:12:32;;;;;;;;;;;;;;;;;;5068928;28;20029;-68
2021/12/14 12:14:59;;;;;;;;;;;;;;;;;;5062773;28;19924;-68
2021/12/14 12:17:26;;;;;;;;;;;;;;;;;;5055020;28;19933;-66
2021/12/14 12:19:53;;;;;;;;;;;;;;;;;;5054371;28;19932;-67
2021/12/14 12:22:20;;;;;;;;;;;;;;;;;;5053918;28;19924;-68
2021/12/14 12:24:47;;;;;;;;;;;;;;;;;;5069674;28;20381;-67
2021/12/14 12:27:14;;;;;;;;;;;;;;;;;;5053621;28;19938;-66
2021/12/14 12:29:41;;;;;;;;;;;;;;;;;;5063529;28;19924;-67
2021/12/14 12:32:17;;;;;;;;;;;;;;;;;;5067097;28;20015;-65
2021/12/14 12:34:45;;;;;;;;;;;;;;;;;;5053185;28;20370;-66
2021/12/14 12:37:12;;;;;;;;;;;;;;;;;;5058164;28;19970;-66
2021/12/14 12:39:39;;;;;;;;;;;;;;;;;;5051569;28;20352;-66
2021/12/14 12:42:06;;;;;;;;;;;;;;;;;;5061818;28;20363;-66
2021/12/14 12:44:33;;;;;;;;;;;;;;;;;;5053326;28;20326;-66
2021/12/14 12:47:00;;;;;;;;;;;;;;;;;;5059640;28;19939;-68
2021/12/14 12:49:27;;;;;;;;;;;;;;;;;;5056792;28;19975;-68
2021/12/14 12:51:55;;;;;;;;;;;;;;;;;;5056145;28;19932;-68
2021/12/14 12:54:22;;;;;;;;;;;;;;;;;;5052456;28;19932;-67
2021/12/14 12:56:49;;;;;;;;;;;;;;;;;;5051750;28;19978;-67
2021/12/14 12:59:17;;;;;;;;;;;;;;;;;;5054937;28;19997;-68
2021/12/14 13:01:44;;;;;;;;;;;;;;;;;;5072826;28;19929;-68
2021/12/14 13:04:11;;;;;;;;;;;;;;;;;;5061346;28;19958;-67
2021/12/14 13:06:39;;;;;;;;;;;;;;;;;;5066345;28;19928;-67
2021/12/14 13:09:06;;;;;;;;;;;;;;;;;;5047343;28;19954;-65
2021/12/14 13:11:35;;;;;;;;;;;;;;;;;;5059283;28;20019;-66
2021/12/14 13:14:02;;;;;;;;;;;;;;;;;;5053182;28;20006;-66
2021/12/14 13:16:29;;;;;;;;;;;;;;;;;;5063921;28;20832;-68
2021/12/14 13:18:56;;;;;;;;;;;;;;;;;;5055289;28;20026;-68
2021/12/14 13:21:23;;;;;;;;;;;;;;;;;;5053449;28;19932;-68
2021/12/14 13:23:50;;;;;;;;;;;;;;;;;;5053249;28;19936;-66
2021/12/14 13:26:17;;;;;;;;;;;;;;;;;;5053670;28;19932;-66
2021/12/14 13:28:44;;;;;;;;;;;;;;;;;;5052358;28;19939;-66
2021/12/14 13:31:11;;;;;;;;;;;;;;;;;;5053307;28;19939;-66
2021/12/14 13:33:38;;;;;;;;;;;;;;;;;;5052766;28;19928;-66
2021/12/14 13:36:05;;;;;;;;;;;;;;;;;;5053996;28;19968;-67
2021/12/14 13:38:32;;;;;;;;;;;;;;;;;;5057644;28;19970;-66
2021/12/14 13:40:59;;;;;;;;;;;;;;;;;;5056260;28;19935;-68
2021/12/14 13:43:26;;;;;;;;;;;;;;;;;;5054873;28;19950;-68
2021/12/14 13:45:53;;;;;;;;;;;;;;;;;;5057094;28;19939;-66
2021/12/14 13:48:20;;;;;;;;;;;;;;;;;;5052548;28;19928;-68
2021/12/14 13:50:47;;;;;;;;;;;;;;;;;;5054688;28;19978;-67
2021/12/14 13:53:14;;;;;;;;;;;;;;;;;;5060818;28;19924;-66
2021/12/14 13:55:42;;;;;;;;;;;;;;;;;;5053359;28;20404;-66
2021/12/14 13:58:09;;;;;;;;;;;;;;;;;;5051752;28;20431;-69
2021/12/14 14:00:36;;;;;;;;;;;;;;;;;;5062196;28;20139;-66
2021/12/14 14:03:03;;;;;;;;;;;;;;;;;;5077721;28;20445;-68
2021/12/14 14:05:30;;;;;;;;;;;;;;;;;;5070191;28;19930;-67
2021/12/14 14:07:57;;;;;;;;;;;;;;;;;;5061721;28;20019;-66
2021/12/14 14:10:24;;;;;;;;;;;;;;;;;;5050478;28;19924;-68
2021/12/14 14:12:51;;;;;;;;;;;;;;;;;;5054576;28;19924;-67
2021/12/14 14:15:18;;;;;;;;;;;;;;;;;;5053247;28;20324;-68
2021/12/14 14:17:45;;;;;;;;;;;;;;;;;;5053163;28;19933;-67
2021/12/14 14:20:12;;;;;;;;;;;;;;;;;;5054368;28;20076;-68
2021/12/14 14:22:39;;;;;;;;;;;;;;;;;;5063634;28;19925;-68
2021/12/14 14:25:08;;;;;;;;;;;;;;;;;;5062525;28;20050;-68
2021/12/14 14:27:35;;;;;;;;;;;;;;;;;;5056077;28;19998;-67
2021/12/14 14:30:02;;;;;;;;;;;;;;;;;;5061421;28;20473;-66
2021/12/14 14:32:35;;;;;;;;;;;;;;;;;;5054528;28;19932;-66
2021/12/14 14:35:02;;;;;;;;;;;;;;;;;;5057469;28;19931;-66
2021/12/14 14:37:29;;;;;;;;;;;;;;;;;;5057214;28;19928;-66
2021/12/14 14:39:56;;;;;;;;;;;;;;;;;;5057354;28;20561;-66
2021/12/14 14:42:24;;;;;;;;;;;;;;;;;;5059316;28;19924;-68
2021/12/14 14:44:51;;;;;;;;;;;;;;;;;;5054245;28;19928;-66
2021/12/14 14:47:18;;;;;;;;;;;;;;;;;;5059002;28;19947;-66
2021/12/14 14:49:45;;;;;;;;;;;;;;;;;;5057685;28;19934;-68
2021/12/14 14:52:12;;;;;;;;;;;;;;;;;;5063941;28;19955;-66
2021/12/14 14:54:41;;;;;;;;;;;;;;;;;;5055909;28;19935;-66
2021/12/14 14:57:08;;;;;;;;;;;;;;;;;;5055277;28;19929;-66
2021/12/14 14:59:35;;;;;;;;;;;;;;;;;;5058661;28;19932;-68
2021/12/14 15:02:02;;;;;;;;;;;;;;;;;;5061266;28;20293;-68
2021/12/14 15:04:29;;;;;;;;;;;;;;;;;;5059780;28;19932;-68
2021/12/14 15:06:56;;;;;;;;;;;;;;;;;;5063574;28;19928;-67
2021/12/14 15:09:23;;;;;;;;;;;;;;;;;;5059186;28;20393;-66
2021/12/14 15:11:51;;;;;;;;;;;;;;;;;;5056203;28;20277;-66
2021/12/14 15:14:22;;;;;;;;;;;;;;;;;;5054876;28;19951;-67
2021/12/14 15:16:49;;;;;;;;;;;;;;;;;;5059313;28;20342;-69
2021/12/14 15:19:16;;;;;;;;;;;;;;;;;;5054614;28;19935;-69
2021/12/14 15:21:43;;;;;;;;;;;;;;;;;;5055273;28;19928;-69
2021/12/14 15:24:10;;;;;;;;;;;;;;;;;;5062292;28;20311;-67
2021/12/14 15:26:37;;;;;;;;;;;;;;;;;;5055895;28;19928;-67
2021/12/14 15:29:04;;;;;;;;;;;;;;;;;;5056179;28;19940;-66
2021/12/14 15:31:31;;;;;;;;;;;;;;;;;;5056011;28;19944;-66
2021/12/14 15:33:58;;;;;;;;;;;;;;;;;;5056492;28;19955;-66
2021/12/14 15:36:25;;;;;;;;;;;;;;;;;;5057327;28;19928;-66
2021/12/14 15:38:52;;;;;;;;;;;;;;;;;;5069239;28;19924;-67
2021/12/14 15:41:19;;;;;;;;;;;;;;;;;;5054983;28;19932;-68
2021/12/14 15:43:46;;;;;;;;;;;;;;;;;;5058522;28;19939;-66
2021/12/14 15:46:13;;;;;;;;;;;;;;;;;;5056030;28;20309;-66
2021/12/14 15:48:40;;;;;;;;;;;;;;;;;;5053602;28;19924;-65
2021/12/14 15:51:07;;;;;;;;;;;;;;;;;;5065525;28;19933;-67
2021/12/14 15:53:35;;;;;;;;;;;;;;;;;;5054401;28;20652;-66
2021/12/14 15:56:02;;;;;;;;;;;;;;;;;;5053290;28;20010;-67
2021/12/14 15:58:29;;;;;;;;;;;;;;;;;;5054393;28;19940;-67
2021/12/14 16:00:56;;;;;;;;;;;;;;;;;;5065418;28;20385;-66
2021/12/14 16:03:23;;;;;;;;;;;;;;;;;;5058647;28;19924;-67
2021/12/14 16:05:52;;;;;;;;;;;;;;;;;;5063685;28;20175;-66
2021/12/14 16:08:19;;;;;;;;;;;;;;;;;;5059337;28;19932;-66
2021/12/14 16:10:53;;;;;;;;;;;;;;;;;;5055141;28;19939;-66
2021/12/14 16:16:04;;;;;;;;;;;;;;;;;;5055806;28;20294;-66
2021/12/14 16:18:31;;;;;;;;;;;;;;;;;;5059076;28;19931;-66
2021/12/14 16:20:59;;;;;;;;;;;;;;;;;;5056831;28;19932;-67
2021/12/14 16:23:26;;;;;;;;;;;;;;;;;;5054896;28;20385;-68
2021/12/14 16:25:53;;;;;;;;;;;;;;;;;;5051796;28;19932;-66
2021/12/14 16:28:20;;;;;;;;;;;;;;;;;;5054115;28;20401;-66
2021/12/14 16:30:47;;;;;;;;;;;;;;;;;;5067134;28;20019;-67
2021/12/14 16:33:13;;;;;;;;;;;;;;;;;;5081021;28;20023;-65
2021/12/14 16:35:40;;;;;;;;;;;;;;;;;;5073962;28;19951;-65
2021/12/14 16:38:07;;;;;;;;;;;;;;;;;;5083879;28;19931;-67
2021/12/14 16:40:34;;;;;;;;;;;;;;;;;;5076487;28;19951;-66
2021/12/14 16:43:01;;;;;;;;;;;;;;;;;;5080609;28;20511;-67
2021/12/14 16:45:28;;;;;;;;;;;;;;;;;;5081289;28;20301;-67
2021/12/14 16:47:55;;;;;;;;;;;;;;;;;;5084536;28;20313;-66
2021/12/14 16:50:22;;;;;;;;;;;;;;;;;;5082144;28;20321;-67
2021/12/14 16:52:49;;;;;;;;;;;;;;;;;;5083398;28;19924;-67
2021/12/14 16:55:16;;;;;;;;;;;;;;;;;;5082392;28;19925;-67
2021/12/14 16:57:43;;;;;;;;;;;;;;;;;;5077771;28;20435;-67
2021/12/14 17:00:10;;;;;;;;;;;;;;;;;;5080037;28;19931;-66
2021/12/14 17:02:37;;;;;;;;;;;;;;;;;;5082237;28;19924;-65
2021/12/14 17:05:04;;;;;;;;;;;;;;;;;;5080919;28;19956;-66
2021/12/14 17:07:31;;;;;;;;;;;;;;;;;;5079843;28;19924;-66
2021/12/14 17:09:58;;;;;;;;;;;;;;;;;;5082292;28;19924;-66
2021/12/14 17:12:25;;;;;;;;;;;;;;;;;;5083724;28;19924;-66
2021/12/14 17:14:52;;;;;;;;;;;;;;;;;;5083399;28;19971;-66